createdAt,value
2023-05-01T00:00:16.159Z,99754.47
2023-05-01T00:02:47.117Z,99752.56
2023-05-01T00:05:14.121Z,99756.44
2023-05-01T00:07:41.060Z,99754.53
2023-05-01T00:10:08.988Z,99752.31
2023-05-01T00:12:35.833Z,99752.09
2023-05-01T00:15:02.937Z,99750.41
2023-05-01T00:17:31.522Z,99743.13
2023-05-01T00:19:58.633Z,99740.25
2023-05-01T00:22:26.046Z,99741.88
2023-05-01T00:24:52.890Z,99741.63
2023-05-01T00:27:20.004Z,99739.53
2023-05-01T00:29:47.128Z,99729.09
2023-05-01T00:32:14.158Z,99729.72
2023-05-01T00:34:42.700Z,99721.41
2023-05-01T00:37:09.541Z,99726.66
2023-05-01T00:39:36.418Z,99718.19
2023-05-01T00:42:03.839Z,99717.81
2023-05-01T00:44:30.818Z,99715.97
2023-05-01T00:46:57.792Z,99721.25
2023-05-01T00:49:25.185Z,99719.78
2023-05-01T00:51:53.573Z,99720.00
2023-05-01T00:54:21.347Z,99714.63
2023-05-01T00:56:49.630Z,99704.22
2023-05-01T00:59:17.716Z,99709.44
2023-05-01T01:01:44.720Z,99703.84
2023-05-01T01:04:12.199Z,99703.00
2023-05-01T01:06:53.667Z,99692.59
2023-05-01T01:09:38.324Z,99702.41
2023-05-01T01:12:19.417Z,99698.25
2023-05-01T01:14:58.203Z,99690.97
2023-05-01T01:17:35.107Z,99694.53
2023-05-01T01:20:37.006Z,99691.59
2023-05-01T01:23:37.033Z,99692.41
2023-05-01T01:26:18.217Z,99688.00
2023-05-01T01:29:26.711Z,99680.50
2023-05-01T01:32:11.595Z,99695.03
2023-05-01T01:34:50.247Z,99689.81
2023-05-01T01:37:23.851Z,99698.09
2023-05-01T01:40:00.820Z,99687.53
2023-05-01T01:42:36.249Z,99681.00
2023-05-01T01:45:09.382Z,99685.50
2023-05-01T01:47:41.521Z,99682.38
2023-05-01T01:50:14.237Z,99680.69
2023-05-01T01:52:47.489Z,99681.50
2023-05-01T01:55:21.252Z,99674.84
2023-05-01T01:57:50.836Z,99680.19
2023-05-01T02:00:21.924Z,99676.63
2023-05-01T02:02:52.415Z,99682.84
2023-05-01T02:05:23.711Z,99675.53
2023-05-01T02:07:54.301Z,99675.53
2023-05-01T02:10:24.212Z,99666.44
2023-05-01T02:12:54.689Z,99669.94
2023-05-01T02:15:24.288Z,99671.63
2023-05-01T02:17:53.370Z,99673.19
2023-05-01T02:20:23.263Z,99661.13
2023-05-01T02:22:52.379Z,99672.53
2023-05-01T02:25:19.759Z,99671.50
2023-05-01T02:27:55.514Z,99674.16
2023-05-01T02:30:22.569Z,99663.53
2023-05-01T02:32:49.667Z,99668.91
2023-05-01T02:35:16.645Z,99671.41
2023-05-01T02:37:45.552Z,99662.59
2023-05-01T02:40:13.634Z,99658.47
2023-05-01T02:42:43.692Z,99656.00
2023-05-01T02:45:19.746Z,99653.75
2023-05-01T02:47:51.693Z,99644.16
2023-05-01T02:50:20.231Z,99649.34
2023-05-01T02:52:50.164Z,99648.25
2023-05-01T02:55:38.210Z,99645.34
2023-05-01T02:58:05.441Z,99639.16
2023-05-01T03:00:32.700Z,99640.66
2023-05-01T03:02:59.638Z,99635.84
2023-05-01T03:05:26.531Z,99642.44
2023-05-01T03:08:51.068Z,99638.44
2023-05-01T03:11:26.459Z,99633.47
2023-05-01T03:14:03.243Z,99637.38
2023-05-01T03:16:32.460Z,99625.28
2023-05-01T03:19:02.474Z,99621.56
2023-05-01T03:21:31.225Z,99621.56
2023-05-01T03:23:59.749Z,99617.84
2023-05-01T03:26:26.785Z,99626.44
2023-05-01T03:28:53.867Z,99626.00
2023-05-01T03:31:21.414Z,99622.09
2023-05-01T03:33:48.451Z,99625.81
2023-05-01T03:36:16.867Z,99620.19
2023-05-01T03:38:45.564Z,99614.78
2023-05-01T03:41:32.269Z,99624.16
2023-05-01T03:44:07.765Z,99610.25
2023-05-01T03:46:43.404Z,99612.91
2023-05-01T03:49:16.086Z,99609.34
2023-05-01T03:51:47.139Z,99614.09
2023-05-01T03:54:14.111Z,99607.22
2023-05-01T03:57:07.390Z,99607.19
2023-05-01T03:59:34.220Z,99606.75
2023-05-01T04:02:01.585Z,99601.34
2023-05-01T04:04:30.783Z,99608.19
2023-05-01T04:06:58.825Z,99610.31
2023-05-01T04:09:26.019Z,99608.28
2023-05-01T04:11:53.284Z,99604.50
2023-05-01T04:14:21.588Z,99608.22
2023-05-01T04:16:49.068Z,99605.06
2023-05-01T04:19:17.164Z,99606.91
2023-05-01T04:21:46.580Z,99612.31
2023-05-01T04:24:13.599Z,99611.28
2023-05-01T04:26:41.064Z,99616.84
2023-05-01T04:29:09.314Z,99609.13
2023-05-01T04:31:39.066Z,99610.78
2023-05-01T04:34:07.188Z,99606.88
2023-05-01T04:36:36.449Z,99604.16
2023-05-01T04:39:03.385Z,99612.91
2023-05-01T04:41:31.090Z,99614.31
2023-05-01T04:43:58.158Z,99605.59
2023-05-01T04:46:28.930Z,99615.59
2023-05-01T04:48:57.420Z,99608.31
2023-05-01T04:51:24.463Z,99605.81
2023-05-01T04:53:52.325Z,99611.84
2023-05-01T04:56:26.448Z,99614.31
2023-05-01T04:59:41.416Z,99606.63
2023-05-01T05:02:08.876Z,99614.72
2023-05-01T05:04:37.137Z,99604.72
2023-05-01T05:07:12.725Z,99604.91
2023-05-01T05:10:13.721Z,99613.16
2023-05-01T05:12:45.438Z,99611.84
2023-05-01T05:15:12.601Z,99606.66
2023-05-01T05:17:40.734Z,99596.72
2023-05-01T05:20:11.257Z,99612.06
2023-05-01T05:22:38.377Z,99606.44
2023-05-01T05:25:21.051Z,99597.28
2023-05-01T05:27:47.938Z,99604.00
2023-05-01T05:30:15.818Z,99608.63
2023-05-01T05:32:43.761Z,99611.09
2023-05-01T05:35:12.107Z,99606.22
2023-05-01T05:37:38.964Z,99599.06
2023-05-01T05:40:08.161Z,99607.91
2023-05-01T05:42:46.524Z,99607.81
2023-05-01T05:45:13.706Z,99610.69
2023-05-01T05:47:40.709Z,99606.66
2023-05-01T05:50:09.155Z,99605.78
2023-05-01T05:52:38.494Z,99606.34
2023-05-01T05:55:07.650Z,99607.94
2023-05-01T05:57:36.063Z,99608.13
2023-05-01T06:00:06.510Z,99613.06
2023-05-01T06:02:39.573Z,99605.75
2023-05-01T06:05:08.728Z,99604.13
2023-05-01T06:07:37.969Z,99608.03
2023-05-01T06:10:06.179Z,99611.13
2023-05-01T06:12:34.105Z,99611.97
2023-05-01T06:15:04.267Z,99613.59
2023-05-01T06:17:32.149Z,99605.25
2023-05-01T06:19:59.431Z,99610.84
2023-05-01T06:22:27.901Z,99601.66
2023-05-01T06:25:11.337Z,99607.28
2023-05-01T06:27:38.334Z,99601.28
2023-05-01T06:30:07.276Z,99605.78
2023-05-01T06:32:35.107Z,99605.09
2023-05-01T06:35:02.172Z,99604.81
2023-05-01T06:37:29.276Z,99602.63
2023-05-01T06:39:56.865Z,99603.00
2023-05-01T06:42:25.741Z,99605.63
2023-05-01T06:44:52.869Z,99610.53
2023-05-01T06:47:19.831Z,99614.41
2023-05-01T06:49:46.838Z,99619.31
2023-05-01T06:52:16.723Z,99624.31
2023-05-01T06:54:43.882Z,99622.72
2023-05-01T06:57:10.859Z,99624.03
2023-05-01T06:59:39.400Z,99623.13
2023-05-01T07:02:06.904Z,99616.47
2023-05-01T07:04:34.096Z,99621.47
2023-05-01T07:07:01.022Z,99627.97
2023-05-01T07:09:27.941Z,99623.31
2023-05-01T07:11:56.028Z,99625.19
2023-05-01T07:14:23.342Z,99624.06
2023-05-01T07:16:51.731Z,99630.28
2023-05-01T07:19:19.011Z,99626.06
2023-05-01T07:21:46.145Z,99630.19
2023-05-01T07:24:12.940Z,99631.69
2023-05-01T07:26:39.739Z,99635.03
2023-05-01T07:29:08.368Z,99633.81
2023-05-01T07:31:35.426Z,99626.91
2023-05-01T07:34:03.970Z,99626.75
2023-05-01T07:36:31.019Z,99620.78
2023-05-01T07:38:57.931Z,99623.50
2023-05-01T07:41:25.095Z,99634.81
2023-05-01T07:43:51.992Z,99628.91
2023-05-01T07:46:18.971Z,99629.25
2023-05-01T07:48:46.871Z,99622.56
2023-05-01T07:51:15.124Z,99622.09
2023-05-01T07:53:42.084Z,99616.81
2023-05-01T07:56:10.673Z,99624.13
2023-05-01T07:58:38.114Z,99616.69
2023-05-01T08:01:06.547Z,99616.81
2023-05-01T08:03:33.957Z,99617.63
2023-05-01T08:06:01.469Z,99607.81
2023-05-01T08:08:30.710Z,99605.69
2023-05-01T08:10:57.750Z,99605.22
2023-05-01T08:13:24.790Z,99606.28
2023-05-01T08:15:52.262Z,99607.81
2023-05-01T08:18:19.260Z,99601.34
2023-05-01T08:20:46.612Z,99607.31
2023-05-01T08:23:14.919Z,99603.72
2023-05-01T08:25:44.125Z,99603.38
2023-05-01T08:28:11.589Z,99604.66
2023-05-01T08:30:38.608Z,99608.44
2023-05-01T08:33:05.896Z,99607.25
2023-05-01T08:35:33.016Z,99605.31
2023-05-01T08:38:01.481Z,99606.09
2023-05-01T08:40:35.984Z,99603.47
2023-05-01T08:43:04.848Z,99606.19
2023-05-01T08:45:34.439Z,99607.09
2023-05-01T08:48:05.793Z,99609.16
2023-05-01T08:50:35.211Z,99611.41
2023-05-01T08:53:04.600Z,99599.22
2023-05-01T08:55:34.885Z,99592.31
2023-05-01T08:58:07.044Z,99603.13
2023-05-01T09:00:37.993Z,99601.19
2023-05-01T09:03:08.595Z,99602.97
2023-05-01T09:05:36.340Z,99600.84
2023-05-01T09:08:03.683Z,99604.94
2023-05-01T09:10:33.109Z,99597.78
2023-05-01T09:13:03.883Z,99601.56
2023-05-01T09:15:33.645Z,99612.72
2023-05-01T09:18:03.588Z,99612.75
2023-05-01T09:20:32.107Z,99602.75
2023-05-01T09:22:59.641Z,99604.19
2023-05-01T09:25:26.608Z,99600.81
2023-05-01T09:27:54.987Z,99606.03
2023-05-01T09:30:35.685Z,99601.91
2023-05-01T09:33:10.707Z,99609.47
2023-05-01T09:35:52.915Z,99606.25
2023-05-01T09:38:23.083Z,99605.94
2023-05-01T09:40:51.106Z,99600.09
2023-05-01T09:43:28.602Z,99605.94
2023-05-01T09:46:08.740Z,99604.94
2023-05-01T09:48:36.494Z,99601.69
2023-05-01T09:51:21.769Z,99599.53
2023-05-01T09:53:50.127Z,99600.97
2023-05-01T09:56:17.230Z,99595.34
2023-05-01T09:58:44.185Z,99593.19
2023-05-01T10:01:13.181Z,99592.59
2023-05-01T10:03:43.329Z,99594.41
2023-05-01T10:06:10.441Z,99597.56
2023-05-01T10:08:48.647Z,99599.34
2023-05-01T10:11:16.556Z,99605.41
2023-05-01T10:13:44.430Z,99600.41
2023-05-01T10:16:30.780Z,99601.81
2023-05-01T10:19:02.257Z,99603.66
2023-05-01T10:21:31.269Z,99606.50
2023-05-01T10:23:59.001Z,99604.50
2023-05-01T10:26:27.174Z,99604.41
2023-05-01T10:28:56.148Z,99596.66
2023-05-01T10:31:24.239Z,99601.13
2023-05-01T10:33:53.447Z,99600.69
2023-05-01T10:36:25.779Z,99602.38
2023-05-01T10:38:53.731Z,99599.19
2023-05-01T10:42:04.822Z,99601.13
2023-05-01T10:44:33.184Z,99599.09
2023-05-01T10:47:00.276Z,99589.81
2023-05-01T10:50:05.244Z,99601.56
2023-05-01T10:53:16.926Z,99589.81
2023-05-01T10:55:49.352Z,99586.28
2023-05-01T10:58:57.757Z,99587.69
2023-05-01T11:01:30.486Z,99583.34
2023-05-01T11:03:59.316Z,99584.47
2023-05-01T11:06:27.932Z,99584.47
2023-05-01T11:08:55.997Z,99578.16
2023-05-01T11:11:48.273Z,99575.09
2023-05-01T11:14:15.490Z,99577.03
2023-05-01T11:16:45.695Z,99577.81
2023-05-01T11:19:46.491Z,99572.88
2023-05-01T11:22:15.270Z,99566.88
2023-05-01T11:24:42.572Z,99566.38
2023-05-01T11:27:16.806Z,99561.88
2023-05-01T11:29:49.644Z,99561.63
2023-05-01T11:32:25.021Z,99561.66
2023-05-01T11:34:53.079Z,99560.56
2023-05-01T11:37:40.290Z,99564.69
2023-05-01T11:40:24.554Z,99559.19
2023-05-01T11:43:01.111Z,99560.63
2023-05-01T11:45:28.209Z,99552.66
2023-05-01T11:47:55.235Z,99555.13
2023-05-01T11:50:22.682Z,99554.31
2023-05-01T11:52:52.328Z,99557.06
2023-05-01T11:55:20.580Z,99552.97
2023-05-01T11:57:49.821Z,99552.97
2023-05-01T12:00:28.905Z,99547.47
2023-05-01T12:03:01.143Z,99549.97
2023-05-01T12:05:31.351Z,99553.22
2023-05-01T12:09:12.853Z,99545.56
2023-05-01T12:11:45.820Z,99546.66
2023-05-01T12:14:15.703Z,99543.38
2023-05-01T12:16:43.900Z,99543.66
2023-05-01T12:19:14.602Z,99541.97
2023-05-01T12:21:41.761Z,99543.66
2023-05-01T12:24:10.255Z,99541.19
2023-05-01T12:26:37.465Z,99544.47
2023-05-01T12:29:08.034Z,99546.66
2023-05-01T12:31:37.484Z,99540.91
2023-05-01T12:34:06.749Z,99538.53
2023-05-01T12:36:36.890Z,99540.50
2023-05-01T12:43:37.838Z,99539.47
2023-05-01T12:46:13.557Z,99535.94
2023-05-01T12:48:40.861Z,99532.72
2023-05-01T12:51:17.602Z,99536.50
2023-05-01T12:54:27.521Z,99536.25
2023-05-01T12:57:06.478Z,99544.19
2023-05-01T12:59:35.122Z,99536.25
2023-05-01T13:02:05.431Z,99534.88
2023-05-01T13:04:33.876Z,99540.34
2023-05-01T13:07:01.534Z,99536.78
2023-05-01T13:09:29.786Z,99531.25
2023-05-01T13:12:01.974Z,99532.09
2023-05-01T13:14:30.231Z,99524.72
2023-05-01T13:16:57.289Z,99528.25
2023-05-01T13:19:29.833Z,99531.31
2023-05-01T13:21:57.808Z,99539.78
2023-05-01T13:24:37.752Z,99525.81
2023-05-01T13:27:05.303Z,99525.28
2023-05-01T13:29:33.405Z,99522.56
2023-05-01T13:32:01.058Z,99519.81
2023-05-01T13:34:34.379Z,99512.16
2023-05-01T13:37:02.469Z,99522.56
2023-05-01T13:39:29.828Z,99519.00
2023-05-01T13:41:56.759Z,99515.97
2023-05-01T13:44:23.804Z,99520.31
2023-05-01T13:46:51.171Z,99509.91
2023-05-01T13:49:21.325Z,99509.38
2023-05-01T13:51:52.719Z,99516.22
2023-05-01T13:54:19.878Z,99514.88
2023-05-01T13:56:46.903Z,99511.03
2023-05-01T13:59:14.942Z,99518.97
2023-05-01T14:01:43.550Z,99511.81
2023-05-01T14:04:14.652Z,99517.84
2023-05-01T14:06:42.750Z,99515.13
2023-05-01T14:09:58.910Z,99519.50
2023-05-01T14:12:30.469Z,99507.22
2023-05-01T14:14:59.055Z,99508.53
2023-05-01T14:17:33.380Z,99516.22
2023-05-01T14:20:00.897Z,99512.41
2023-05-01T14:22:31.926Z,99500.63
2023-05-01T14:25:00.609Z,99498.97
2023-05-01T14:27:27.929Z,99497.66
2023-05-01T14:29:54.878Z,99496.47
2023-05-01T14:32:21.899Z,99488.88
2023-05-01T14:34:49.024Z,99491.75
2023-05-01T14:42:02.354Z,99496.78
2023-05-01T14:44:31.682Z,99496.75
2023-05-01T14:46:59.306Z,99502.25
2023-05-01T14:49:26.324Z,99508.53
2023-05-01T14:51:54.196Z,99508.00
2023-05-01T14:54:21.537Z,99507.19
2023-05-01T14:56:48.935Z,99512.13
2023-05-01T14:59:17.220Z,99517.31
2023-05-01T15:01:44.618Z,99518.97
2023-05-01T15:04:12.622Z,99516.22
2023-05-01T15:07:05.917Z,99523.31
2023-05-01T15:10:24.467Z,99534.56
2023-05-01T15:12:51.480Z,99532.09
2023-05-01T15:15:19.866Z,99529.06
2023-05-01T15:17:46.846Z,99526.88
2023-05-01T15:20:13.848Z,99521.41
2023-05-01T15:22:41.181Z,99519.09
2023-05-01T15:25:09.805Z,99521.03
2023-05-01T15:27:37.066Z,99519.41
2023-05-01T15:30:31.735Z,99517.44
2023-05-01T15:32:58.910Z,99512.13
2023-05-01T15:35:28.252Z,99512.63
2023-05-01T15:38:26.581Z,99514.59
2023-05-01T15:40:53.930Z,99505.94
2023-05-01T15:43:20.887Z,99498.72
2023-05-01T15:45:51.207Z,99500.81
2023-05-01T15:48:18.275Z,99499.31
2023-05-01T15:50:48.233Z,99498.34
2023-05-01T15:53:17.185Z,99502.44
2023-05-01T15:55:44.294Z,99506.31
2023-05-01T15:58:11.518Z,99504.13
2023-05-01T16:00:38.435Z,99509.06
2023-05-01T16:03:08.927Z,99506.03
2023-05-01T16:05:38.137Z,99506.31
2023-05-01T16:08:06.651Z,99511.28
2023-05-01T16:10:33.929Z,99514.84
2023-05-01T16:13:01.027Z,99521.16
2023-05-01T16:15:27.922Z,99520.31
2023-05-01T16:17:55.255Z,99519.47
2023-05-01T16:20:24.122Z,99518.59
2023-05-01T16:22:53.056Z,99523.22
2023-05-01T16:25:20.265Z,99525.84
2023-05-01T16:27:47.261Z,99530.25
2023-05-01T16:30:14.841Z,99531.75
2023-05-01T16:32:43.191Z,99535.03
2023-05-01T16:35:11.185Z,99534.19
2023-05-01T16:37:39.618Z,99531.78
2023-05-01T16:40:08.813Z,99538.66
2023-05-01T16:42:36.290Z,99538.91
2023-05-01T16:45:06.656Z,99531.28
2023-05-01T16:47:35.932Z,99538.16
2023-05-01T16:50:07.999Z,99548.00
2023-05-01T16:52:36.463Z,99540.28
2023-05-01T16:55:06.470Z,99533.63
2023-05-01T16:57:33.628Z,99532.00
2023-05-01T17:00:00.813Z,99542.53
2023-05-01T17:02:28.149Z,99542.28
2023-05-01T17:04:56.305Z,99536.22
2023-05-01T17:07:23.530Z,99534.00
2023-05-01T17:09:51.323Z,99540.13
2023-05-01T17:12:19.651Z,99535.53
2023-05-01T17:14:47.315Z,99551.72
2023-05-01T17:17:15.261Z,99557.25
2023-05-01T17:19:43.340Z,99554.19
2023-05-01T17:22:10.701Z,99559.72
2023-05-01T17:24:37.879Z,99561.09
2023-05-01T17:27:04.799Z,99565.59
2023-05-01T17:29:33.137Z,99565.59
2023-05-01T17:32:00.213Z,99560.19
2023-05-01T17:34:27.349Z,99565.34
2023-05-01T17:36:56.512Z,99563.09
2023-05-01T17:39:24.871Z,99567.66
2023-05-01T17:41:51.799Z,99574.81
2023-05-01T17:44:18.727Z,99561.16
2023-05-01T17:46:47.152Z,99566.63
2023-05-01T17:49:14.337Z,99565.78
2023-05-01T17:51:41.208Z,99576.69
2023-05-01T17:54:08.165Z,99569.28
2023-05-01T17:56:35.865Z,99573.97
2023-05-01T17:59:02.882Z,99579.16
2023-05-01T18:01:30.128Z,99578.53
2023-05-01T18:03:58.501Z,99578.38
2023-05-01T18:06:26.405Z,99578.03
2023-05-01T18:08:53.379Z,99576.69
2023-05-01T18:11:22.402Z,99582.91
2023-05-01T18:13:50.337Z,99578.69
2023-05-01T18:16:17.458Z,99586.44
2023-05-01T18:18:47.084Z,99587.38
2023-05-01T18:21:15.465Z,99582.25
2023-05-01T18:23:42.336Z,99589.19
2023-05-01T18:26:09.244Z,99585.25
2023-05-01T18:28:36.190Z,99598.03
2023-05-01T18:31:03.584Z,99610.81
2023-05-01T18:33:30.818Z,99607.69
2023-05-01T18:35:57.666Z,99615.50
2023-05-01T18:38:28.215Z,99621.47
2023-05-01T18:40:55.489Z,99615.47
2023-05-01T18:43:23.279Z,99621.84
2023-05-01T18:45:50.193Z,99622.25
2023-05-01T18:48:17.138Z,99624.03
2023-05-01T18:50:49.278Z,99633.09
2023-05-01T18:53:25.587Z,99633.94
2023-05-01T18:55:53.586Z,99642.09
2023-05-01T18:58:20.848Z,99640.91
2023-05-01T19:00:51.479Z,99645.72
2023-05-01T19:03:18.516Z,99654.75
2023-05-01T19:05:45.697Z,99651.19
2023-05-01T19:08:13.504Z,99654.91
2023-05-01T19:10:41.791Z,99657.69
2023-05-01T19:13:08.878Z,99662.03
2023-05-01T19:15:35.869Z,99666.63
2023-05-01T19:18:03.091Z,99665.22
2023-05-01T19:20:31.525Z,99672.06
2023-05-01T19:22:58.485Z,99669.50
2023-05-01T19:25:26.319Z,99670.41
2023-05-01T19:27:54.624Z,99674.03
2023-05-01T19:30:21.650Z,99678.19
2023-05-01T19:32:51.015Z,99677.59
2023-05-01T19:35:19.707Z,99686.34
2023-05-01T19:37:48.168Z,99691.88
2023-05-01T19:40:17.412Z,99695.31
2023-05-01T19:42:44.303Z,99699.94
2023-05-01T19:45:12.624Z,99704.31
2023-05-01T19:47:39.529Z,99701.13
2023-05-01T19:50:08.171Z,99709.28
2023-05-01T19:52:35.317Z,99715.69
2023-05-01T19:55:04.792Z,99719.31
2023-05-01T19:57:33.318Z,99723.00
2023-05-01T20:00:00.652Z,99728.25
2023-05-01T20:02:29.776Z,99730.84
2023-05-01T20:04:57.090Z,99737.66
2023-05-01T20:07:24.028Z,99740.88
2023-05-01T20:09:50.905Z,99744.03
2023-05-01T20:12:18.220Z,99736.81
2023-05-01T20:14:45.311Z,99742.16
2023-05-01T20:17:22.265Z,99745.53
2023-05-01T20:19:50.616Z,99755.06
2023-05-01T20:22:17.678Z,99756.66
2023-05-01T20:24:46.315Z,99759.22
2023-05-01T20:27:13.399Z,99755.00
2023-05-01T20:29:40.365Z,99750.56
2023-05-01T20:32:07.498Z,99760.00
2023-05-01T20:34:34.526Z,99763.00
2023-05-01T20:37:03.063Z,99766.63
2023-05-01T20:39:30.043Z,99771.00
2023-05-01T20:41:56.965Z,99769.63
2023-05-01T20:44:24.582Z,99773.94
2023-05-01T20:46:51.919Z,99768.59
2023-05-01T20:49:18.968Z,99769.72
2023-05-01T20:51:46.386Z,99780.16
2023-05-01T20:54:14.609Z,99776.94
2023-05-01T20:56:41.498Z,99779.88
2023-05-01T20:59:08.386Z,99786.94
2023-05-01T21:01:35.717Z,99782.59
2023-05-01T21:04:03.874Z,99783.94
2023-05-01T21:06:38.463Z,99788.25
2023-05-01T21:09:05.599Z,99785.22
2023-05-01T21:11:34.118Z,99794.94
2023-05-01T21:14:01.726Z,99793.81
2023-05-01T21:16:28.730Z,99795.63
2023-05-01T21:18:55.778Z,99806.84
2023-05-01T21:21:22.730Z,99801.44
2023-05-01T21:23:51.159Z,99799.75
2023-05-01T21:26:18.749Z,99804.31
2023-05-01T21:28:47.094Z,99791.38
2023-05-01T21:31:16.386Z,99796.03
2023-05-01T21:33:44.415Z,99789.56
2023-05-01T21:36:12.062Z,99789.78
2023-05-01T21:38:39.110Z,99792.88
2023-05-01T21:41:06.118Z,99792.69
2023-05-01T21:43:32.980Z,99791.94
2023-05-01T21:46:03.067Z,99793.38
2023-05-01T21:48:34.600Z,99799.84
2023-05-01T21:51:01.604Z,99795.91
2023-05-01T21:53:29.078Z,99800.72
2023-05-01T21:55:56.079Z,99799.91
2023-05-01T21:58:24.754Z,99798.16
2023-05-01T22:00:51.822Z,99804.59
2023-05-01T22:03:21.277Z,99800.16
2023-05-01T22:05:48.589Z,99803.63
2023-05-01T22:08:15.418Z,99807.56
2023-05-01T22:10:42.260Z,99816.84
2023-05-01T22:13:09.153Z,99813.66
2023-05-01T22:15:36.214Z,99818.75
2023-05-01T22:18:03.385Z,99805.88
2023-05-01T22:20:31.653Z,99812.56
2023-05-01T22:22:58.521Z,99815.50
2023-05-01T22:25:25.426Z,99810.00
2023-05-01T22:27:52.303Z,99818.09
2023-05-01T22:30:19.729Z,99821.16
2023-05-01T22:32:46.699Z,99823.41
2023-05-01T22:35:13.520Z,99823.47
2023-05-01T22:38:19.481Z,99828.09
2023-05-01T22:40:46.515Z,99833.63
2023-05-01T22:43:13.608Z,99834.44
2023-05-01T22:45:40.584Z,99832.13
2023-05-01T22:48:07.588Z,99840.28
2023-05-01T22:50:34.525Z,99844.56
2023-05-01T22:53:01.504Z,99837.63
2023-05-01T22:55:29.806Z,99843.44
2023-05-01T22:57:56.662Z,99843.19
2023-05-01T23:00:23.585Z,99848.56
2023-05-01T23:02:50.854Z,99842.41
2023-05-01T23:05:18.196Z,99850.09
2023-05-01T23:07:45.173Z,99856.97
2023-05-01T23:10:12.752Z,99856.75
2023-05-01T23:12:44.561Z,99861.53
2023-05-01T23:15:12.859Z,99851.94
2023-05-01T23:17:40.184Z,99862.50
2023-05-01T23:20:10.607Z,99861.00
2023-05-01T23:22:38.942Z,99868.47
2023-05-01T23:25:07.693Z,99864.50
2023-05-01T23:27:35.341Z,99859.69
2023-05-01T23:30:06.242Z,99856.66
2023-05-01T23:32:33.829Z,99858.22
2023-05-01T23:35:13.335Z,99852.69
2023-05-01T23:37:40.222Z,99857.69
2023-05-01T23:40:08.925Z,99864.94
2023-05-01T23:42:36.980Z,99868.47
2023-05-01T23:45:07.757Z,99864.47
2023-05-01T23:47:36.652Z,99865.97
2023-05-01T23:50:04.453Z,99857.63
2023-05-01T23:52:32.013Z,99862.63
2023-05-01T23:54:59.249Z,99859.47
2023-05-01T23:57:26.205Z,99851.38
2023-05-01T23:59:53.004Z,99859.50
